Orem, UT (84058)

12:05 PM MST on February 14, 2016 (GMT -0700)
USCJTF 127 Weather | | Change Station
CLOSE
Current Station
Personal Weather Station
Location: Orem, UT
Elevation: 4760 ft
Nearby Weather Stations

Elev 4760 ft 40.28 °N, 111.69 °W | Updated 12 seconds ago

Snow
Snow
33.1 °F
Feels Like 33 °F
N
0.0
Wind Variable Wind from WSW
Gusts 2.0 mph

Today
High -- | Low -- °F
--% Chance of Precip.
Yesterday
High -- | Low -- °F
Precip. -- in
Pressure 30.29 in
Visibility 0.8 miles
Clouds
Windchill 33 °F
Dew Point 30 °F
Humidity 89%
Rainfall 0.00 in
Snow Depth Not available.
7:21 AM 6:00 PM
Waxing Crescent, 44% visible
METAR KPVU 141847Z 00000KT 3/4SM BR VV005 M02/M03 A3029
Pressure 30.29 in
Visibility 0.8 miles
Clouds
Windchill 33 °F
Dew Point 30 °F
Humidity 89%
Rainfall 0.00 in
Snow Depth Not available.
7:21 AM 6:00 PM
Waxing Crescent, 44% visible
METAR KPVU 141847Z 00000KT 3/4SM BR VV005 M02/M03 A3029

10-Day Weather Forecast

Almanac

Astronomy

Feb. 14, 2016 Rise Set
Actual Time
Civil Twilight
Nautical Twilight
Astronomical Twilight
Moon
Length of Visible Light
Length of Day
Tomorrow will be .
, % of the Moon is Illuminated

Today's Extremes

State Highs State Lows

Community

WunderPhotos

Upload Photos

1,892,874 photos uploaded!

WunderBlog® & News

Nearby

Air Quality

  Air Quality AQ Index Pollutant
Not available.

Snow Depth

Station Depth Elevation

Earthquake Activity

City Distance Mag. Time & Date
Minimum magnitude displayed is 2.5.

Coastal Water Temperatures

Place Temperature

Stations

Nearby Weather Stations

Station Location Temp. Windchill Dew Point Humidity Wind Precip. Elev Updated Type
                   

Watches & Warnings

There are currently no watches in effect.